createdAt,value
2017-10-11T13:19:59.899Z,30.17
2017-10-11T13:22:32.505Z,32.00
2017-10-11T13:25:02.263Z,28.57
2017-10-11T13:27:31.329Z,28.80
2017-10-11T13:30:02.992Z,31.40
2017-10-11T13:32:33.729Z,33.17
2017-10-11T13:35:05.341Z,27.80
2017-10-11T13:37:36.517Z,32.83
2017-10-11T13:40:05.746Z,28.50
2017-10-11T13:42:37.877Z,30.50
2017-10-11T13:45:07.217Z,27.07
2017-10-11T13:47:36.029Z,31.33
2017-10-11T13:50:08.174Z,26.60
2017-10-11T13:52:38.815Z,26.87
2017-10-11T13:55:08.904Z,28.07
2017-10-11T13:57:38.542Z,31.63
2017-10-11T14:00:08.068Z,32.33
2017-10-11T14:02:36.920Z,28.97
2017-10-11T14:05:06.508Z,27.97
2017-10-11T14:07:37.182Z,28.60
2017-10-11T14:10:08.005Z,30.40
2017-10-11T14:12:37.366Z,29.87
2017-10-11T14:15:08.946Z,31.10
2017-10-11T14:17:51.995Z,29.07
2017-10-11T14:20:21.441Z,27.90
2017-10-11T14:22:51.990Z,28.13
2017-10-11T14:25:21.827Z,26.57
2017-10-11T14:27:52.019Z,30.30
2017-10-11T14:30:28.404Z,30.50
2017-10-11T14:32:59.526Z,25.90
2017-10-11T14:35:29.042Z,25.67
2017-10-11T14:37:57.908Z,26.37
2017-10-11T14:40:30.161Z,27.33
2017-10-11T14:43:02.222Z,27.47
2017-10-11T14:45:31.157Z,26.60
2017-10-11T14:48:03.002Z,30.93
2017-10-11T14:50:32.290Z,28.93
2017-10-11T14:53:02.841Z,29.20
2017-10-11T14:55:34.438Z,27.70
2017-10-11T14:58:15.581Z,26.67
2017-10-11T15:00:45.438Z,28.30
2017-10-11T15:03:19.792Z,28.77
2017-10-11T15:05:49.382Z,26.90
2017-10-11T15:08:20.887Z,25.90
2017-10-11T15:10:49.989Z,28.10
2017-10-11T15:13:19.331Z,25.47
2017-10-11T15:15:49.010Z,27.30
2017-10-11T15:18:18.711Z,28.57
2017-10-11T15:20:47.799Z,25.43
2017-10-11T15:23:17.071Z,24.10
2017-10-11T15:25:47.369Z,31.63
2017-10-11T15:28:18.930Z,23.47
2017-10-11T15:30:49.158Z,26.40
2017-10-11T15:33:22.514Z,24.13
2017-10-11T15:35:51.504Z,26.10
2017-10-11T15:38:27.157Z,21.77
2017-10-11T15:41:00.242Z,22.70
2017-10-11T15:43:32.728Z,22.70
2017-10-11T15:46:03.438Z,22.07
2017-10-11T15:48:35.805Z,23.30
2017-10-11T15:51:05.330Z,23.67
2017-10-11T15:53:37.438Z,20.67
2017-10-11T15:56:07.627Z,21.90
2017-10-11T15:58:38.853Z,21.10
2017-10-11T16:01:10.505Z,19.63
2017-10-11T16:03:41.638Z,18.70
2017-10-11T16:06:11.341Z,18.70
2017-10-11T16:08:45.109Z,18.60
2017-10-11T16:11:13.988Z,17.77
2017-10-11T16:13:43.125Z,16.60
2017-10-11T16:16:12.243Z,16.27
2017-10-11T16:18:41.761Z,16.47
2017-10-11T16:21:12.173Z,17.77
2017-10-11T16:23:43.265Z,17.40
2017-10-11T16:26:15.172Z,16.23
2017-10-11T16:28:46.894Z,21.03
2017-10-11T16:31:16.903Z,18.03
2017-10-11T16:33:46.765Z,16.83
2017-10-11T16:36:17.438Z,16.10
2017-10-11T16:38:46.219Z,16.87
2017-10-11T16:41:15.082Z,16.43
2017-10-11T16:43:45.842Z,17.47
2017-10-11T16:49:53.072Z,17.60
2017-10-11T16:52:31.348Z,17.40
2017-10-11T16:55:03.835Z,17.90
2017-10-11T16:57:49.982Z,17.50
2017-10-11T17:00:24.312Z,16.00
2017-10-11T17:03:03.405Z,18.03
2017-10-11T17:05:35.673Z,17.47
2017-10-11T17:08:12.536Z,18.27
2017-10-11T17:10:48.008Z,18.27
2017-10-11T17:13:36.431Z,17.10
2017-10-11T17:16:10.769Z,18.67
2017-10-11T17:18:45.651Z,16.60
2017-10-11T17:21:19.253Z,15.67
2017-10-11T17:23:54.448Z,16.90
2017-10-11T17:26:27.928Z,19.50
2017-10-11T17:29:07.979Z,16.23
2017-10-11T17:31:44.223Z,17.47
2017-10-11T17:34:18.523Z,17.37
2017-10-11T17:36:50.247Z,15.13
2017-10-11T17:39:29.146Z,16.00
2017-10-11T17:42:08.734Z,18.10
2017-10-11T17:44:42.254Z,19.03
2017-10-11T17:47:22.790Z,17.63
2017-10-11T17:49:56.194Z,17.23
2017-10-11T17:52:32.182Z,16.73
2017-10-11T17:55:10.528Z,16.83
2017-10-11T17:57:42.584Z,16.20
2017-10-11T18:00:21.858Z,15.70
2017-10-11T18:02:57.828Z,15.83
2017-10-11T18:05:30.720Z,15.53
2017-10-11T18:08:08.085Z,15.60
2017-10-11T18:10:41.562Z,17.53
2017-10-11T18:13:13.670Z,15.77
2017-10-11T18:15:54.710Z,16.20
2017-10-11T18:18:26.776Z,17.00
2017-10-11T18:20:59.286Z,16.90
2017-10-11T18:23:34.692Z,14.73
2017-10-11T18:26:10.440Z,17.80
2017-10-11T18:28:44.698Z,15.70
2017-10-11T18:31:16.595Z,14.60
2017-10-11T18:33:49.368Z,15.93
2017-10-11T18:36:21.281Z,16.10
2017-10-11T18:38:53.795Z,16.00
2017-10-11T18:41:25.902Z,16.23
2017-10-11T18:44:03.287Z,18.73
2017-10-11T18:46:40.080Z,16.30
2017-10-11T18:49:15.850Z,16.60
2017-10-11T18:51:49.649Z,15.50
2017-10-11T18:54:32.287Z,15.03
2017-10-11T18:57:05.447Z,17.03
2017-10-11T18:59:42.485Z,18.87
2017-10-11T19:02:17.415Z,19.10
2017-10-11T19:04:50.913Z,15.93
2017-10-11T19:07:29.166Z,17.40
2017-10-11T19:10:04.583Z,15.50
2017-10-11T19:12:38.868Z,14.87
2017-10-11T19:15:14.368Z,14.70
2017-10-11T19:17:52.912Z,14.53
2017-10-11T19:20:26.156Z,15.73
2017-10-11T19:22:58.103Z,13.87
2017-10-11T19:25:33.419Z,14.10
2017-10-11T19:28:06.758Z,14.43
2017-10-11T19:30:40.339Z,14.00
2017-10-11T19:33:13.335Z,14.00
2017-10-11T19:35:49.956Z,14.97
2017-10-11T19:38:22.595Z,14.43
2017-10-11T19:40:56.936Z,13.60
2017-10-11T19:43:30.190Z,14.50
2017-10-11T19:48:41.924Z,14.60
2017-10-11T19:51:14.801Z,15.20
2017-10-11T19:53:47.604Z,18.53
2017-10-11T19:56:30.863Z,14.77
2017-10-11T19:59:08.453Z,17.37
2017-10-11T20:01:43.038Z,13.93
2017-10-11T20:04:15.490Z,14.80
2017-10-11T20:06:47.904Z,17.43
2017-10-11T20:09:22.756Z,15.53
2017-10-11T20:11:56.252Z,14.90
2017-10-11T20:14:39.103Z,13.93
2017-10-11T20:17:18.424Z,14.30
2017-10-11T20:19:54.761Z,13.70
2017-10-11T20:22:40.836Z,16.20
2017-10-11T20:25:14.024Z,13.97
2017-10-11T20:27:50.937Z,17.03
2017-10-11T20:30:30.835Z,14.50
2017-10-11T20:33:05.788Z,14.37
2017-10-11T20:35:40.122Z,16.70
2017-10-11T20:38:18.524Z,14.63
2017-10-11T20:40:53.004Z,15.13
2017-10-11T20:43:27.329Z,15.20
2017-10-11T20:45:59.041Z,16.40
2017-10-11T20:48:31.419Z,15.50
2017-10-11T20:51:09.741Z,14.90
2017-10-11T20:53:43.515Z,16.00
2017-10-11T20:56:16.155Z,16.30
2017-10-11T20:58:49.525Z,15.63
2017-10-11T21:01:22.645Z,16.93
2017-10-11T21:03:57.298Z,17.10
2017-10-11T21:06:30.719Z,16.07
2017-10-11T21:09:05.218Z,15.47
2017-10-11T21:11:38.341Z,15.07
2017-10-11T21:14:10.780Z,17.23
2017-10-11T21:16:44.758Z,17.33
2017-10-11T21:19:19.625Z,16.87
2017-10-11T21:21:58.461Z,15.10
2017-10-11T21:24:32.390Z,15.50
2017-10-11T21:27:09.347Z,18.60
2017-10-11T21:29:42.487Z,14.20
2017-10-11T21:32:13.527Z,15.37
2017-10-11T21:34:44.821Z,14.90
2017-10-11T21:37:16.079Z,15.37
2017-10-11T21:39:48.496Z,14.20
2017-10-11T21:42:20.545Z,14.10
2017-10-11T21:44:53.956Z,15.23
2017-10-11T21:47:28.739Z,14.50
2017-10-11T21:53:41.753Z,13.10
2017-10-11T21:56:13.140Z,16.90
2017-10-11T21:58:44.271Z,13.37
2017-10-11T22:01:20.028Z,14.00
2017-10-11T22:03:57.658Z,13.73
2017-10-11T22:06:34.537Z,14.43
2017-10-11T22:09:15.258Z,17.07
2017-10-11T22:11:49.454Z,13.20
2017-10-11T22:14:22.006Z,15.00
2017-10-11T22:16:58.304Z,14.63
2017-10-11T22:19:31.719Z,13.17
2017-10-11T22:22:14.628Z,14.63
2017-10-11T22:24:50.778Z,14.87
2017-10-11T22:31:03.351Z,14.30
2017-10-11T22:33:35.856Z,13.70
2017-10-11T22:36:08.516Z,14.30
2017-10-11T22:38:43.854Z,13.37
2017-10-11T22:41:15.687Z,15.47
2017-10-11T22:43:54.291Z,14.60
2017-10-11T22:46:30.855Z,15.43
2017-10-11T22:49:15.846Z,14.20
2017-10-11T22:51:49.141Z,15.07
2017-10-11T22:54:20.933Z,13.97
2017-10-11T22:56:55.971Z,15.13
2017-10-11T22:59:28.984Z,14.23
2017-10-11T23:02:03.974Z,15.03
2017-10-11T23:04:38.997Z,14.33
2017-10-11T23:07:10.834Z,15.10
2017-10-11T23:09:43.949Z,14.17
2017-10-11T23:12:15.299Z,13.90
2017-10-11T23:14:48.134Z,15.73
2017-10-11T23:17:20.200Z,15.40
2017-10-11T23:19:53.060Z,15.57
2017-10-11T23:22:26.029Z,12.40
2017-10-11T23:25:00.431Z,14.43
2017-10-11T23:27:37.680Z,14.20
2017-10-11T23:30:18.409Z,12.67
2017-10-11T23:32:49.497Z,19.90
2017-10-11T23:35:26.170Z,15.30
2017-10-11T23:38:05.857Z,13.80
2017-10-11T23:40:37.205Z,15.70
2017-10-11T23:43:10.699Z,16.87
2017-10-11T23:45:44.035Z,14.20
2017-10-11T23:48:17.337Z,14.57
2017-10-11T23:50:56.781Z,14.87
2017-10-11T23:53:31.469Z,13.53
2017-10-11T23:56:03.375Z,14.27
2017-10-11T23:58:37.834Z,13.07
